createdAt,value
2018-07-13T00:02:25.775Z,12.90
2018-07-13T00:04:54.244Z,13.30
2018-07-13T00:07:22.664Z,14.13
2018-07-13T00:09:51.076Z,14.50
2018-07-13T00:12:19.509Z,12.20
2018-07-13T00:14:59.311Z,12.27
2018-07-13T00:17:27.804Z,13.03
2018-07-13T00:19:56.267Z,14.40
2018-07-13T00:22:24.682Z,12.67
2018-07-13T00:24:53.108Z,12.77
2018-07-13T00:27:21.480Z,11.77
2018-07-13T00:29:50.004Z,11.43
2018-07-13T00:32:18.420Z,10.13
2018-07-13T00:34:46.840Z,11.53
2018-07-13T00:37:15.292Z,11.60
2018-07-13T00:39:43.720Z,11.83
2018-07-13T00:42:12.133Z,11.00
2018-07-13T00:44:40.577Z,12.60
2018-07-13T00:47:09.024Z,11.83
2018-07-13T00:49:37.457Z,12.70
2018-07-13T00:52:05.892Z,13.83
2018-07-13T00:54:34.312Z,11.80
2018-07-13T00:57:02.755Z,12.27
2018-07-13T00:59:31.316Z,15.20
2018-07-13T01:01:59.751Z,12.93
2018-07-13T01:04:28.266Z,12.40
2018-07-13T01:06:56.764Z,15.43
2018-07-13T01:09:25.268Z,11.97
2018-07-13T01:11:53.701Z,11.73
2018-07-13T01:14:22.134Z,11.00
2018-07-13T01:16:50.615Z,10.83
2018-07-13T01:19:19.154Z,13.37
2018-07-13T01:21:47.871Z,11.63
2018-07-13T01:24:16.345Z,11.03
2018-07-13T01:26:44.805Z,10.50
2018-07-13T01:29:13.228Z,10.80
2018-07-13T01:31:41.686Z,11.10
2018-07-13T01:34:10.117Z,10.57
2018-07-13T01:36:38.599Z,10.13
2018-07-13T01:39:09.377Z,12.07
2018-07-13T01:41:37.816Z,11.40
2018-07-13T01:44:06.439Z,10.93
2018-07-13T01:46:34.860Z,11.13
2018-07-13T01:49:03.301Z,12.17
2018-07-13T01:51:31.753Z,14.03
2018-07-13T01:54:00.361Z,13.30
2018-07-13T01:56:28.844Z,14.50
2018-07-13T01:58:57.285Z,13.07
2018-07-13T02:01:25.704Z,14.27
2018-07-13T02:03:54.150Z,11.43
2018-07-13T02:06:22.584Z,12.13
2018-07-13T02:08:51.035Z,12.40
2018-07-13T02:11:19.473Z,11.33
2018-07-13T02:13:48.227Z,10.50
2018-07-13T02:16:16.662Z,12.77
2018-07-13T02:18:45.121Z,12.83
2018-07-13T02:21:13.540Z,11.67
2018-07-13T02:23:41.962Z,11.10
2018-07-13T02:26:10.406Z,10.70
2018-07-13T02:28:38.828Z,11.13
2018-07-13T02:31:07.440Z,11.63
2018-07-13T02:33:35.939Z,11.90
2018-07-13T02:36:04.509Z,17.17
2018-07-13T02:38:32.931Z,12.03
2018-07-13T02:41:01.361Z,13.07
2018-07-13T02:43:29.809Z,13.23
2018-07-13T02:45:58.225Z,12.47
2018-07-13T02:48:26.668Z,10.83
2018-07-13T02:50:55.085Z,11.07
2018-07-13T02:53:23.526Z,12.70
2018-07-13T02:55:52.004Z,13.20
2018-07-13T02:58:20.461Z,14.33
2018-07-13T03:00:48.957Z,11.83
2018-07-13T03:03:17.410Z,12.53
2018-07-13T03:05:45.865Z,11.13
2018-07-13T03:08:14.325Z,10.03
2018-07-13T03:10:42.757Z,11.17
2018-07-13T03:13:11.217Z,11.43
2018-07-13T03:15:39.717Z,9.63
2018-07-13T03:18:08.144Z,11.23
2018-07-13T03:20:36.305Z,14.93
2018-07-13T03:23:04.775Z,10.27
2018-07-13T03:25:33.247Z,12.57
2018-07-13T03:28:01.690Z,11.63
2018-07-13T03:30:30.143Z,13.77
2018-07-13T03:32:58.582Z,11.43
2018-07-13T03:35:27.032Z,12.20
2018-07-13T03:37:55.462Z,12.80
2018-07-13T03:40:23.889Z,12.60
2018-07-13T03:42:52.345Z,13.20
2018-07-13T03:45:20.788Z,13.87
2018-07-13T03:47:49.206Z,13.60
2018-07-13T03:50:17.684Z,11.83
2018-07-13T03:52:46.244Z,16.27
2018-07-13T03:55:14.686Z,14.23
2018-07-13T03:57:43.276Z,11.00
2018-07-13T04:00:11.914Z,11.00
2018-07-13T04:02:40.365Z,12.60
2018-07-13T04:05:08.816Z,12.77
2018-07-13T04:07:37.291Z,11.37
2018-07-13T04:10:05.857Z,13.23
2018-07-13T04:12:34.333Z,12.57
2018-07-13T04:15:02.781Z,12.80
2018-07-13T04:17:31.341Z,12.40
2018-07-13T04:19:59.777Z,12.00
2018-07-13T04:22:28.250Z,11.27
2018-07-13T04:24:57.126Z,14.23
2018-07-13T04:27:26.105Z,11.43
2018-07-13T04:29:54.670Z,13.47
2018-07-13T04:32:23.104Z,13.60
2018-07-13T04:34:51.625Z,13.07
2018-07-13T04:37:20.125Z,11.33
2018-07-13T04:39:48.569Z,12.80
2018-07-13T04:42:17.100Z,14.40
2018-07-13T04:44:45.528Z,20.30
2018-07-13T04:47:14.024Z,15.07
2018-07-13T04:49:42.559Z,11.80
2018-07-13T04:52:11.050Z,12.53
2018-07-13T04:54:39.540Z,14.73
2018-07-13T04:57:08.058Z,12.37
2018-07-13T04:59:36.643Z,12.97
2018-07-13T05:02:05.230Z,12.37
2018-07-13T05:04:33.746Z,13.90
2018-07-13T05:07:02.268Z,14.87
2018-07-13T05:09:31.571Z,11.17
2018-07-13T05:12:00.060Z,12.77
2018-07-13T05:14:28.482Z,14.03
2018-07-13T05:16:56.931Z,14.83
2018-07-13T05:19:25.602Z,12.33
2018-07-13T05:21:54.101Z,13.23
2018-07-13T05:24:22.609Z,10.40
2018-07-13T05:26:51.177Z,12.40
2018-07-13T05:29:19.704Z,11.33
2018-07-13T05:31:48.480Z,10.90
2018-07-13T05:34:16.968Z,10.23
2018-07-13T05:36:45.439Z,10.20
2018-07-13T05:39:14.000Z,8.73
2018-07-13T05:41:43.278Z,11.60
2018-07-13T05:44:11.804Z,10.90
2018-07-13T05:46:40.859Z,8.58
2018-07-13T05:49:09.788Z,10.10
2018-07-13T05:51:38.846Z,9.08
2018-07-13T05:54:07.327Z,7.25
2018-07-13T05:56:35.830Z,8.53
2018-07-13T05:59:04.361Z,13.13
2018-07-13T06:01:32.884Z,8.83
2018-07-13T06:04:01.398Z,9.03
2018-07-13T06:06:29.869Z,8.58
2018-07-13T06:09:00.699Z,13.43
2018-07-13T06:11:29.225Z,8.15
2018-07-13T06:13:57.661Z,9.70
2018-07-13T06:16:26.097Z,10.00
2018-07-13T06:18:54.537Z,11.08
2018-07-13T06:21:22.999Z,9.73
2018-07-13T06:23:51.428Z,8.80
2018-07-13T06:26:19.900Z,10.46
2018-07-13T06:28:48.386Z,10.18
2018-07-13T06:31:16.910Z,9.73
2018-07-13T06:33:45.380Z,12.05
2018-07-13T06:36:13.869Z,12.40
2018-07-13T06:38:42.574Z,11.83
2018-07-13T06:41:11.084Z,11.97
2018-07-13T06:43:39.578Z,16.07
2018-07-13T06:46:08.424Z,12.47
2018-07-13T06:48:36.944Z,12.65
2018-07-13T06:51:05.438Z,13.62
2018-07-13T06:53:33.941Z,12.20
2018-07-13T06:56:02.446Z,12.60
2018-07-13T06:58:42.172Z,18.25
2018-07-13T07:01:10.982Z,13.30
2018-07-13T07:04:51.481Z,15.60
2018-07-13T07:07:22.380Z,14.25
2018-07-13T07:09:57.674Z,15.88
2018-07-13T07:13:07.865Z,14.65
2018-07-13T07:15:36.597Z,13.70
2018-07-13T07:18:05.142Z,17.65
2018-07-13T07:20:33.622Z,13.05
2018-07-13T07:23:02.085Z,18.48
2018-07-13T07:25:30.990Z,14.58
2018-07-13T07:27:59.441Z,14.00
2018-07-13T07:30:27.909Z,17.48
2018-07-13T07:32:56.360Z,12.85
2018-07-13T07:35:24.858Z,16.55
2018-07-13T07:37:53.330Z,16.82
2018-07-13T07:40:21.796Z,21.87
2018-07-13T07:42:50.324Z,16.90
2018-07-13T07:45:18.796Z,15.53
2018-07-13T07:47:47.300Z,13.50
2018-07-13T07:50:15.942Z,23.75
2018-07-13T07:52:44.422Z,17.37
2018-07-13T07:55:12.915Z,18.25
2018-07-13T07:57:41.443Z,18.80
2018-07-13T08:00:09.894Z,15.40
2018-07-13T08:02:38.657Z,20.02
2018-07-13T08:05:07.116Z,17.80
2018-07-13T08:07:35.643Z,17.32
2018-07-13T08:10:04.497Z,14.15
2018-07-13T08:12:32.941Z,17.57
2018-07-13T08:15:01.386Z,14.60
2018-07-13T08:17:29.870Z,15.58
2018-07-13T08:19:58.464Z,13.30
2018-07-13T08:22:34.677Z,12.98
2018-07-13T08:25:06.070Z,15.05
2018-07-13T08:27:38.386Z,14.80
2018-07-13T08:30:09.641Z,11.20
2018-07-13T08:32:38.100Z,12.25
2018-07-13T08:35:06.597Z,13.48
2018-07-13T08:37:35.026Z,12.55
2018-07-13T08:40:03.573Z,12.68
2018-07-13T08:42:32.089Z,14.18
2018-07-13T08:45:00.773Z,9.75
2018-07-13T08:47:29.249Z,12.70
2018-07-13T08:49:57.710Z,11.43
2018-07-13T08:52:26.267Z,16.02
2018-07-13T08:54:54.869Z,13.78
2018-07-13T08:57:23.394Z,14.10
2018-07-13T08:59:52.092Z,15.23
2018-07-13T09:02:20.467Z,12.75
2018-07-13T09:04:49.050Z,12.47
2018-07-13T09:07:17.461Z,13.50
2018-07-13T09:09:45.978Z,13.53
2018-07-13T09:12:14.466Z,11.28
2018-07-13T09:14:42.912Z,15.68
2018-07-13T09:17:11.418Z,13.62
2018-07-13T09:19:39.909Z,10.98
2018-07-13T09:22:08.364Z,12.82
2018-07-13T09:24:36.841Z,12.98
2018-07-13T09:27:05.349Z,17.15
2018-07-13T09:29:33.843Z,21.68
2018-07-13T09:32:02.345Z,15.08
2018-07-13T09:34:30.986Z,25.32
2018-07-13T09:36:59.831Z,16.50
2018-07-13T09:39:28.281Z,12.98
2018-07-13T09:41:56.808Z,19.00
2018-07-13T09:44:25.306Z,11.80
2018-07-13T09:46:53.869Z,16.00
2018-07-13T09:49:22.318Z,17.67
2018-07-13T09:51:50.644Z,15.98
2018-07-13T09:54:19.863Z,12.13
2018-07-13T09:56:48.427Z,10.88
2018-07-13T09:59:16.869Z,13.18
2018-07-13T10:01:45.385Z,12.43
2018-07-13T10:04:13.840Z,22.27
2018-07-13T10:06:42.386Z,30.00
2018-07-13T10:09:10.903Z,20.32
2018-07-13T10:11:39.358Z,17.57
2018-07-13T10:14:07.833Z,22.52
2018-07-13T10:16:36.331Z,12.63
2018-07-13T10:19:04.889Z,19.82
2018-07-13T10:21:34.011Z,14.28
2018-07-13T10:24:02.897Z,13.32
2018-07-13T10:26:35.048Z,14.87
2018-07-13T10:29:05.979Z,18.10
2018-07-13T10:31:34.596Z,16.45
2018-07-13T10:34:03.396Z,18.20
2018-07-13T10:36:33.233Z,12.85
2018-07-13T10:39:01.686Z,13.50
2018-07-13T10:41:30.185Z,15.25
2018-07-13T10:43:58.637Z,12.13
2018-07-13T10:46:27.125Z,11.50
2018-07-13T10:48:55.579Z,11.15
2018-07-13T10:51:24.066Z,12.55
2018-07-13T10:53:52.738Z,14.35
2018-07-13T10:56:21.217Z,11.95
2018-07-13T10:58:49.685Z,14.25
2018-07-13T11:01:18.307Z,7.75
2018-07-13T11:03:46.724Z,16.93
2018-07-13T11:06:15.169Z,10.00
2018-07-13T11:08:43.589Z,8.18
2018-07-13T11:11:12.029Z,6.78
2018-07-13T11:13:40.498Z,7.70
2018-07-13T11:16:08.934Z,12.50
2018-07-13T11:18:37.365Z,11.55
2018-07-13T11:21:06.134Z,10.40
2018-07-13T11:23:34.534Z,11.35
2018-07-13T11:26:03.021Z,7.60
2018-07-13T11:28:31.445Z,9.38
2018-07-13T11:30:59.910Z,11.05
2018-07-13T11:33:28.350Z,8.25
2018-07-13T11:35:56.806Z,10.93
2018-07-13T11:38:25.272Z,10.48
2018-07-13T11:40:53.765Z,10.90
2018-07-13T11:43:22.219Z,9.23
2018-07-13T11:45:50.673Z,12.30
2018-07-13T11:48:19.146Z,32.15
2018-07-13T11:50:47.755Z,12.53
2018-07-13T11:53:17.105Z,20.82
2018-07-13T11:55:45.599Z,11.35
2018-07-13T11:58:14.148Z,8.78
2018-07-13T12:00:42.888Z,8.93
2018-07-13T12:03:11.321Z,7.28
2018-07-13T12:05:39.740Z,8.00
2018-07-13T12:08:08.226Z,10.03
2018-07-13T12:10:36.633Z,7.33
2018-07-13T12:13:05.156Z,10.43
2018-07-13T12:15:33.569Z,8.23
2018-07-13T12:18:02.065Z,9.43
2018-07-13T12:20:30.541Z,8.95
2018-07-13T12:22:59.046Z,8.53
2018-07-13T12:25:27.540Z,7.65
2018-07-13T12:27:55.974Z,7.42
2018-07-13T12:30:24.402Z,9.35
2018-07-13T12:32:53.757Z,9.05
2018-07-13T12:35:22.229Z,6.60
2018-07-13T12:37:50.690Z,6.60
2018-07-13T12:40:19.166Z,8.03
2018-07-13T12:42:47.630Z,6.00
2018-07-13T12:45:16.057Z,6.80
2018-07-13T12:47:44.453Z,5.72
2018-07-13T12:50:12.911Z,7.10
2018-07-13T12:52:41.384Z,8.18
2018-07-13T12:55:09.834Z,7.95
2018-07-13T12:57:38.284Z,7.87
2018-07-13T13:00:06.997Z,5.67
2018-07-13T13:02:35.425Z,6.03
2018-07-13T13:05:03.921Z,7.65
2018-07-13T13:07:32.605Z,7.67
2018-07-13T13:10:01.338Z,6.45
2018-07-13T13:12:29.800Z,6.05
2018-07-13T13:14:58.255Z,9.10
2018-07-13T13:17:26.756Z,9.70
2018-07-13T13:19:55.228Z,5.83
2018-07-13T13:22:23.664Z,7.35
2018-07-13T13:24:52.083Z,19.70
2018-07-13T13:27:20.508Z,9.03
2018-07-13T13:29:48.945Z,24.27
2018-07-13T13:32:17.361Z,10.30
2018-07-13T13:34:45.823Z,6.15
2018-07-13T13:37:14.266Z,6.62
2018-07-13T13:39:42.819Z,6.53
2018-07-13T13:42:11.304Z,6.20
2018-07-13T13:44:40.035Z,11.22
2018-07-13T13:47:08.471Z,5.62
2018-07-13T13:49:36.924Z,10.75
2018-07-13T13:52:05.741Z,8.90
2018-07-13T13:54:34.162Z,6.50
2018-07-13T13:57:57.925Z,9.48
2018-07-13T14:00:26.445Z,10.55
2018-07-13T14:02:54.965Z,7.42
2018-07-13T14:05:23.567Z,6.80
2018-07-13T14:07:52.020Z,5.30
2018-07-13T14:10:20.559Z,12.37
2018-07-13T14:12:49.096Z,8.05
2018-07-13T14:15:17.653Z,5.65
2018-07-13T14:17:46.176Z,10.90
2018-07-13T14:20:14.713Z,12.45
2018-07-13T14:22:43.208Z,7.37
2018-07-13T14:25:11.722Z,5.60
2018-07-13T14:27:40.288Z,7.17
2018-07-13T14:30:09.390Z,5.20
2018-07-13T14:32:37.886Z,7.65
2018-07-13T14:35:07.060Z,6.28
2018-07-13T14:37:36.069Z,7.17
2018-07-13T14:40:05.507Z,7.70
2018-07-13T14:42:34.593Z,6.72
2018-07-13T14:45:03.701Z,5.97
2018-07-13T14:47:32.727Z,11.03
2018-07-13T14:50:01.761Z,6.42
2018-07-13T14:52:30.769Z,5.83
2018-07-13T14:54:59.805Z,11.95
2018-07-13T14:57:28.856Z,9.00
2018-07-13T14:59:57.884Z,6.12
2018-07-13T15:02:26.936Z,5.30
2018-07-13T15:04:55.951Z,5.17
2018-07-13T15:07:24.977Z,8.48
2018-07-13T15:09:54.010Z,4.67
2018-07-13T15:12:23.031Z,4.47
2018-07-13T15:14:52.084Z,9.18
2018-07-13T15:17:21.210Z,6.30
2018-07-13T15:19:50.281Z,8.40
2018-07-13T15:22:19.307Z,4.55
2018-07-13T15:24:48.337Z,6.10
2018-07-13T15:27:17.393Z,6.22
2018-07-13T15:29:46.375Z,4.67
2018-07-13T15:32:15.425Z,5.95
2018-07-13T15:34:44.427Z,4.83
2018-07-13T15:37:13.540Z,6.10
2018-07-13T15:39:42.501Z,3.52
2018-07-13T15:42:11.566Z,7.58
2018-07-13T15:44:40.865Z,3.22
2018-07-13T15:47:09.897Z,4.00
2018-07-13T15:49:38.929Z,3.42
2018-07-13T15:52:08.009Z,5.47
2018-07-13T15:54:37.066Z,10.38
2018-07-13T15:57:06.137Z,6.03
2018-07-13T15:59:35.192Z,5.70
2018-07-13T16:02:04.299Z,4.83
2018-07-13T16:04:33.302Z,3.55
2018-07-13T16:07:02.477Z,3.98
2018-07-13T16:09:31.509Z,5.17
2018-07-13T16:12:00.765Z,3.77
2018-07-13T16:14:29.776Z,4.67
2018-07-13T16:16:58.869Z,4.15
2018-07-13T16:19:27.893Z,4.65
2018-07-13T16:21:56.918Z,4.87
2018-07-13T16:24:26.000Z,4.20
2018-07-13T16:26:55.058Z,4.35
2018-07-13T16:29:23.801Z,4.05
2018-07-13T16:31:52.746Z,4.53
2018-07-13T16:34:21.773Z,6.40
2018-07-13T16:36:50.867Z,4.20
2018-07-13T16:39:19.925Z,10.90
2018-07-13T16:41:49.031Z,4.85
2018-07-13T16:44:18.042Z,8.95
2018-07-13T16:46:47.093Z,4.70
2018-07-13T16:49:16.090Z,6.60
2018-07-13T16:51:45.332Z,7.87
2018-07-13T16:54:14.430Z,4.40
2018-07-13T16:56:43.501Z,4.72
2018-07-13T16:59:12.545Z,7.40
2018-07-13T17:01:41.559Z,6.72
2018-07-13T17:04:10.612Z,9.18
2018-07-13T17:06:39.733Z,5.75
2018-07-13T17:09:09.070Z,3.75
2018-07-13T17:11:38.076Z,7.05
2018-07-13T17:14:07.173Z,16.65
2018-07-13T17:16:36.226Z,9.95
2018-07-13T17:19:05.339Z,5.65
2018-07-13T17:21:34.545Z,5.10
2018-07-13T17:24:03.577Z,6.30
2018-07-13T17:26:32.605Z,6.45
2018-07-13T17:29:01.627Z,3.80
2018-07-13T17:31:30.681Z,5.12
2018-07-13T17:33:59.763Z,6.10
2018-07-13T17:36:28.823Z,7.05
2018-07-13T17:38:57.894Z,6.40
2018-07-13T17:44:02.196Z,5.78
2018-07-13T17:46:31.221Z,4.30
2018-07-13T17:49:00.347Z,8.50
2018-07-13T17:51:29.382Z,6.55
2018-07-13T17:53:58.437Z,7.67
2018-07-13T17:56:27.509Z,9.80
2018-07-13T17:58:56.577Z,4.47
2018-07-13T18:01:25.688Z,4.03
2018-07-13T18:03:54.719Z,4.33
2018-07-13T18:06:23.753Z,5.85
2018-07-13T18:08:52.781Z,5.45
2018-07-13T18:11:21.961Z,6.12
2018-07-13T18:13:50.989Z,6.70
2018-07-13T18:16:20.040Z,5.83
2018-07-13T18:18:49.073Z,6.22
2018-07-13T18:21:18.073Z,4.65
2018-07-13T18:23:47.126Z,5.03
2018-07-13T18:26:16.164Z,5.78
2018-07-13T18:28:45.265Z,7.65
2018-07-13T18:31:14.357Z,5.15
2018-07-13T18:33:43.412Z,4.20
2018-07-13T18:36:12.889Z,3.83
2018-07-13T18:38:42.419Z,6.53
2018-07-13T18:41:11.826Z,5.30
2018-07-13T18:43:40.871Z,5.95
2018-07-13T18:46:09.912Z,8.65
2018-07-13T18:48:39.312Z,4.93
2018-07-13T18:51:08.853Z,4.35
2018-07-13T18:53:38.174Z,4.50
2018-07-13T18:56:07.525Z,6.87
2018-07-13T18:58:36.682Z,7.50
2018-07-13T19:01:05.741Z,6.53
2018-07-13T19:03:34.467Z,3.87
2018-07-13T19:06:03.455Z,5.97
2018-07-13T19:08:32.550Z,6.30
2018-07-13T19:11:01.550Z,4.58
2018-07-13T19:13:30.674Z,11.07
2018-07-13T19:15:59.734Z,5.15
2018-07-13T19:18:28.732Z,8.40
2018-07-13T19:20:57.812Z,7.30
2018-07-13T19:23:26.857Z,7.03
2018-07-13T19:25:56.153Z,5.17
2018-07-13T19:28:25.170Z,10.10
2018-07-13T19:30:54.407Z,22.77
2018-07-13T19:33:23.383Z,30.30
2018-07-13T19:35:52.350Z,13.90
2018-07-13T19:38:21.442Z,5.97
2018-07-13T19:40:50.508Z,7.07
2018-07-13T19:43:19.568Z,5.57
2018-07-13T19:45:48.602Z,6.13
2018-07-13T19:48:17.768Z,6.23
2018-07-13T19:50:46.809Z,5.70
2018-07-13T19:53:15.955Z,6.93
2018-07-13T19:55:44.918Z,4.90
2018-07-13T19:58:13.921Z,7.80
2018-07-13T20:00:42.917Z,6.60
2018-07-13T20:03:11.945Z,7.83
2018-07-13T20:05:40.995Z,10.17
2018-07-13T20:08:10.074Z,7.63
2018-07-13T20:10:39.174Z,6.77
2018-07-13T20:13:08.201Z,5.97
2018-07-13T20:15:37.268Z,6.87
2018-07-13T20:18:06.293Z,9.27
2018-07-13T20:20:35.300Z,7.77
2018-07-13T20:23:04.321Z,6.67
2018-07-13T20:25:33.307Z,4.67
2018-07-13T20:28:02.315Z,5.90
2018-07-13T20:30:31.321Z,7.60
2018-07-13T20:33:00.597Z,7.87
2018-07-13T20:35:29.608Z,11.27
2018-07-13T20:37:58.589Z,12.63
2018-07-13T20:40:27.620Z,10.37
2018-07-13T20:42:56.624Z,10.30
2018-07-13T20:45:25.686Z,10.93
2018-07-13T20:47:54.745Z,14.63
2018-07-13T20:50:23.818Z,15.47
2018-07-13T20:52:52.899Z,12.73
2018-07-13T20:55:21.901Z,12.57
2018-07-13T20:57:51.063Z,11.57
2018-07-13T21:00:20.105Z,13.87
2018-07-13T21:02:49.950Z,16.57
2018-07-13T21:05:19.018Z,15.00
2018-07-13T21:07:48.057Z,16.50
2018-07-13T21:10:17.172Z,11.97
2018-07-13T21:12:46.129Z,9.20
2018-07-13T21:15:15.130Z,13.63
2018-07-13T21:17:44.143Z,8.67
2018-07-13T21:20:13.250Z,9.50
2018-07-13T21:22:42.393Z,9.70
2018-07-13T21:25:11.414Z,6.50
2018-07-13T21:27:40.429Z,7.03
2018-07-13T21:30:09.486Z,12.60
2018-07-13T21:32:38.542Z,6.60
2018-07-13T21:35:07.556Z,7.30
2018-07-13T21:37:36.576Z,5.80
2018-07-13T21:40:05.678Z,7.23
2018-07-13T21:42:34.692Z,6.03
2018-07-13T21:45:03.800Z,6.20
2018-07-13T21:47:32.793Z,7.73
2018-07-13T21:50:01.786Z,7.20
2018-07-13T21:52:30.800Z,9.20
2018-07-13T21:54:59.800Z,11.00
2018-07-13T21:57:28.860Z,9.03
2018-07-13T21:59:57.873Z,8.00
2018-07-13T22:02:26.932Z,8.43
2018-07-13T22:04:55.884Z,11.47
2018-07-13T22:07:24.572Z,9.90
2018-07-13T22:09:53.895Z,11.43
2018-07-13T22:12:22.929Z,6.57
2018-07-13T22:14:51.915Z,5.90
2018-07-13T22:17:21.345Z,10.23
2018-07-13T22:19:50.361Z,9.00
2018-07-13T22:22:19.368Z,9.27
2018-07-13T22:24:48.397Z,7.50
2018-07-13T22:27:17.403Z,9.13
2018-07-13T22:29:46.392Z,8.30
2018-07-13T22:32:15.431Z,8.13
2018-07-13T22:34:44.466Z,10.50
2018-07-13T22:37:13.487Z,10.57
2018-07-13T22:39:42.241Z,7.93
2018-07-13T22:42:11.161Z,9.60
2018-07-13T22:44:40.157Z,10.43
2018-07-13T22:47:09.186Z,8.90
2018-07-13T22:49:38.212Z,10.43
2018-07-13T22:52:07.609Z,10.43
2018-07-13T22:54:36.614Z,7.77
2018-07-13T22:57:05.613Z,6.13
2018-07-13T22:59:34.637Z,9.47
2018-07-13T23:02:03.669Z,7.70
2018-07-13T23:04:32.722Z,10.17
2018-07-13T23:07:01.816Z,9.03
2018-07-13T23:09:30.860Z,9.27
2018-07-13T23:12:00.316Z,7.10
2018-07-13T23:14:29.356Z,9.10
2018-07-13T23:16:58.378Z,12.27
2018-07-13T23:19:27.397Z,8.57
2018-07-13T23:21:56.618Z,7.33
2018-07-13T23:24:25.648Z,9.70
2018-07-13T23:26:54.666Z,11.00
2018-07-13T23:29:24.093Z,8.50
2018-07-13T23:31:53.132Z,10.47
2018-07-13T23:34:22.141Z,9.37
2018-07-13T23:36:51.222Z,8.97
2018-07-13T23:39:20.263Z,6.70
2018-07-13T23:41:49.272Z,7.83
2018-07-13T23:44:18.317Z,8.83
2018-07-13T23:46:47.345Z,7.60
2018-07-13T23:49:16.373Z,8.87
2018-07-13T23:51:45.396Z,10.90
2018-07-13T23:54:14.397Z,10.57
2018-07-13T23:56:43.717Z,7.73
2018-07-13T23:59:12.725Z,8.00
